sensor_id;sensor_type;location;lat;lon;timestamp;P1;durP1;ratioP1;P2;durP2;ratioP2
58360;SDS011;44164;44.954;10.068;2024-03-22T00:00:58;9.23;;;7.95;;
58360;SDS011;44164;44.954;10.068;2024-03-22T00:03:24;8.82;;;6.70;;
58360;SDS011;44164;44.954;10.068;2024-03-22T00:05:51;10.68;;;7.88;;
58360;SDS011;44164;44.954;10.068;2024-03-22T00:08:17;10.65;;;8.30;;
58360;SDS011;44164;44.954;10.068;2024-03-22T00:10:43;10.25;;;7.68;;
58360;SDS011;44164;44.954;10.068;2024-03-22T00:13:09;10.18;;;7.32;;
58360;SDS011;44164;44.954;10.068;2024-03-22T00:15:35;9.88;;;6.93;;
58360;SDS011;44164;44.954;10.068;2024-03-22T00:18:01;11.10;;;7.40;;
58360;SDS011;44164;44.954;10.068;2024-03-22T00:20:27;8.82;;;7.20;;
58360;SDS011;44164;44.954;10.068;2024-03-22T00:22:53;11.10;;;7.53;;
58360;SDS011;44164;44.954;10.068;2024-03-22T00:25:19;9.60;;;7.05;;
58360;SDS011;44164;44.954;10.068;2024-03-22T00:27:45;10.85;;;7.82;;
58360;SDS011;44164;44.954;10.068;2024-03-22T00:30:12;10.35;;;8.00;;
58360;SDS011;44164;44.954;10.068;2024-03-22T00:32:38;10.48;;;8.48;;
58360;SDS011;44164;44.954;10.068;2024-03-22T00:35:04;10.98;;;7.82;;
58360;SDS011;44164;44.954;10.068;2024-03-22T00:37:30;8.90;;;7.15;;
58360;SDS011;44164;44.954;10.068;2024-03-22T00:39:56;9.50;;;7.35;;
58360;SDS011;44164;44.954;10.068;2024-03-22T00:42:22;9.52;;;7.10;;
58360;SDS011;44164;44.954;10.068;2024-03-22T00:44:48;10.82;;;7.32;;
58360;SDS011;44164;44.954;10.068;2024-03-22T00:47:14;11.05;;;8.00;;
58360;SDS011;44164;44.954;10.068;2024-03-22T00:49:40;9.75;;;7.72;;
58360;SDS011;44164;44.954;10.068;2024-03-22T00:52:06;10.95;;;7.93;;
58360;SDS011;44164;44.954;10.068;2024-03-22T00:54:32;9.30;;;7.25;;
58360;SDS011;44164;44.954;10.068;2024-03-22T00:56:58;8.50;;;7.18;;
58360;SDS011;44164;44.954;10.068;2024-03-22T00:59:24;9.52;;;7.43;;
58360;SDS011;44164;44.954;10.068;2024-03-22T01:01:51;10.85;;;7.65;;
58360;SDS011;44164;44.954;10.068;2024-03-22T01:04:17;8.65;;;7.40;;
58360;SDS011;44164;44.954;10.068;2024-03-22T01:06:43;9.15;;;7.05;;
58360;SDS011;44164;44.954;10.068;2024-03-22T01:09:09;9.70;;;7.47;;
58360;SDS011;44164;44.954;10.068;2024-03-22T01:11:35;9.85;;;7.05;;
58360;SDS011;44164;44.954;10.068;2024-03-22T01:14:01;9.68;;;7.55;;
58360;SDS011;44164;44.954;10.068;2024-03-22T01:16:27;9.80;;;7.13;;
58360;SDS011;44164;44.954;10.068;2024-03-22T01:18:53;8.00;;;7.10;;
58360;SDS011;44164;44.954;10.068;2024-03-22T01:21:19;8.75;;;7.35;;
58360;SDS011;44164;44.954;10.068;2024-03-22T01:23:53;9.45;;;7.32;;
58360;SDS011;44164;44.954;10.068;2024-03-22T01:26:21;9.55;;;7.25;;
58360;SDS011;44164;44.954;10.068;2024-03-22T01:28:47;9.85;;;7.53;;
58360;SDS011;44164;44.954;10.068;2024-03-22T01:31:13;8.98;;;7.00;;
58360;SDS011;44164;44.954;10.068;2024-03-22T01:33:39;9.75;;;7.93;;
58360;SDS011;44164;44.954;10.068;2024-03-22T01:36:05;9.15;;;6.78;;
58360;SDS011;44164;44.954;10.068;2024-03-22T01:38:31;8.23;;;6.68;;
58360;SDS011;44164;44.954;10.068;2024-03-22T01:40:57;8.32;;;7.18;;
58360;SDS011;44164;44.954;10.068;2024-03-22T01:43:23;8.63;;;6.63;;
58360;SDS011;44164;44.954;10.068;2024-03-22T01:45:49;8.13;;;6.80;;
58360;SDS011;44164;44.954;10.068;2024-03-22T01:48:16;8.07;;;7.05;;
58360;SDS011;44164;44.954;10.068;2024-03-22T01:50:42;8.45;;;6.65;;
58360;SDS011;44164;44.954;10.068;2024-03-22T01:53:09;10.38;;;7.03;;
58360;SDS011;44164;44.954;10.068;2024-03-22T01:55:35;7.78;;;6.70;;
58360;SDS011;44164;44.954;10.068;2024-03-22T01:58:01;9.00;;;7.32;;
58360;SDS011;44164;44.954;10.068;2024-03-22T02:00:29;7.93;;;6.47;;
58360;SDS011;44164;44.954;10.068;2024-03-22T02:02:56;9.00;;;7.18;;
58360;SDS011;44164;44.954;10.068;2024-03-22T02:05:22;7.95;;;7.05;;
58360;SDS011;44164;44.954;10.068;2024-03-22T02:07:49;9.25;;;6.80;;
58360;SDS011;44164;44.954;10.068;2024-03-22T02:10:16;7.95;;;6.75;;
58360;SDS011;44164;44.954;10.068;2024-03-22T02:12:42;8.07;;;7.03;;
58360;SDS011;44164;44.954;10.068;2024-03-22T02:15:09;9.95;;;7.65;;
58360;SDS011;44164;44.954;10.068;2024-03-22T02:17:35;8.85;;;6.53;;
58360;SDS011;44164;44.954;10.068;2024-03-22T02:20:01;8.05;;;6.65;;
58360;SDS011;44164;44.954;10.068;2024-03-22T02:22:29;7.63;;;6.82;;
58360;SDS011;44164;44.954;10.068;2024-03-22T02:24:55;7.80;;;6.68;;
58360;SDS011;44164;44.954;10.068;2024-03-22T02:27:21;8.05;;;6.50;;
58360;SDS011;44164;44.954;10.068;2024-03-22T02:29:47;7.40;;;6.38;;
58360;SDS011;44164;44.954;10.068;2024-03-22T02:32:14;7.35;;;6.38;;
58360;SDS011;44164;44.954;10.068;2024-03-22T02:34:40;8.25;;;6.68;;
58360;SDS011;44164;44.954;10.068;2024-03-22T02:37:06;8.68;;;6.85;;
58360;SDS011;44164;44.954;10.068;2024-03-22T02:39:32;8.27;;;6.43;;
58360;SDS011;44164;44.954;10.068;2024-03-22T02:41:58;6.57;;;5.97;;
58360;SDS011;44164;44.954;10.068;2024-03-22T02:44:24;6.72;;;5.97;;
58360;SDS011;44164;44.954;10.068;2024-03-22T02:46:50;7.47;;;6.30;;
58360;SDS011;44164;44.954;10.068;2024-03-22T02:49:16;8.68;;;6.93;;
58360;SDS011;44164;44.954;10.068;2024-03-22T02:51:42;7.18;;;5.80;;
58360;SDS011;44164;44.954;10.068;2024-03-22T02:54:08;7.25;;;5.90;;
58360;SDS011;44164;44.954;10.068;2024-03-22T02:56:34;6.22;;;5.45;;
58360;SDS011;44164;44.954;10.068;2024-03-22T02:59:00;6.57;;;5.88;;
58360;SDS011;44164;44.954;10.068;2024-03-22T03:01:26;8.07;;;6.20;;
58360;SDS011;44164;44.954;10.068;2024-03-22T03:03:52;8.30;;;6.20;;
58360;SDS011;44164;44.954;10.068;2024-03-22T03:06:36;7.70;;;6.57;;
58360;SDS011;44164;44.954;10.068;2024-03-22T03:09:02;7.95;;;6.30;;
58360;SDS011;44164;44.954;10.068;2024-03-22T03:11:33;6.55;;;5.18;;
58360;SDS011;44164;44.954;10.068;2024-03-22T03:13:59;6.57;;;5.57;;
58360;SDS011;44164;44.954;10.068;2024-03-22T03:16:25;7.15;;;6.15;;
58360;SDS011;44164;44.954;10.068;2024-03-22T03:18:51;6.72;;;5.53;;
58360;SDS011;44164;44.954;10.068;2024-03-22T03:21:17;7.32;;;6.22;;
58360;SDS011;44164;44.954;10.068;2024-03-22T03:23:43;7.40;;;6.20;;
58360;SDS011;44164;44.954;10.068;2024-03-22T03:26:09;7.20;;;6.20;;
58360;SDS011;44164;44.954;10.068;2024-03-22T03:28:45;6.50;;;5.80;;
58360;SDS011;44164;44.954;10.068;2024-03-22T03:31:11;7.20;;;6.25;;
58360;SDS011;44164;44.954;10.068;2024-03-22T03:33:37;7.20;;;6.30;;
58360;SDS011;44164;44.954;10.068;2024-03-22T03:36:04;6.80;;;6.05;;
58360;SDS011;44164;44.954;10.068;2024-03-22T03:38:30;7.00;;;5.78;;
58360;SDS011;44164;44.954;10.068;2024-03-22T03:40:56;6.57;;;5.95;;
58360;SDS011;44164;44.954;10.068;2024-03-22T03:43:22;6.25;;;5.65;;
58360;SDS011;44164;44.954;10.068;2024-03-22T03:45:48;7.22;;;6.22;;
58360;SDS011;44164;44.954;10.068;2024-03-22T03:48:14;7.75;;;5.88;;
58360;SDS011;44164;44.954;10.068;2024-03-22T03:50:40;7.07;;;5.65;;
58360;SDS011;44164;44.954;10.068;2024-03-22T03:53:06;6.60;;;5.78;;
58360;SDS011;44164;44.954;10.068;2024-03-22T03:55:32;6.70;;;5.72;;
58360;SDS011;44164;44.954;10.068;2024-03-22T03:57:59;6.18;;;5.40;;
58360;SDS011;44164;44.954;10.068;2024-03-22T04:00:25;6.30;;;5.57;;
58360;SDS011;44164;44.954;10.068;2024-03-22T04:02:51;6.30;;;5.70;;
58360;SDS011;44164;44.954;10.068;2024-03-22T04:05:17;6.53;;;5.43;;
58360;SDS011;44164;44.954;10.068;2024-03-22T04:07:46;5.60;;;4.93;;
58360;SDS011;44164;44.954;10.068;2024-03-22T04:10:13;5.63;;;5.03;;
58360;SDS011;44164;44.954;10.068;2024-03-22T04:12:39;5.32;;;4.82;;
58360;SDS011;44164;44.954;10.068;2024-03-22T04:15:05;5.30;;;4.80;;
58360;SDS011;44164;44.954;10.068;2024-03-22T04:17:32;5.47;;;4.70;;
58360;SDS011;44164;44.954;10.068;2024-03-22T04:19:58;6.18;;;5.32;;
58360;SDS011;44164;44.954;10.068;2024-03-22T04:22:24;5.63;;;4.80;;
58360;SDS011;44164;44.954;10.068;2024-03-22T04:24:50;5.68;;;5.13;;
58360;SDS011;44164;44.954;10.068;2024-03-22T04:27:16;6.72;;;5.57;;
58360;SDS011;44164;44.954;10.068;2024-03-22T04:29:42;5.85;;;5.25;;
58360;SDS011;44164;44.954;10.068;2024-03-22T04:32:08;4.60;;;4.07;;
58360;SDS011;44164;44.954;10.068;2024-03-22T04:34:34;4.90;;;4.40;;
58360;SDS011;44164;44.954;10.068;2024-03-22T04:37:00;5.55;;;4.72;;
58360;SDS011;44164;44.954;10.068;2024-03-22T04:39:26;5.15;;;4.65;;
58360;SDS011;44164;44.954;10.068;2024-03-22T04:41:52;4.72;;;4.22;;
58360;SDS011;44164;44.954;10.068;2024-03-22T04:44:18;5.38;;;4.53;;
58360;SDS011;44164;44.954;10.068;2024-03-22T04:46:44;4.85;;;4.20;;
58360;SDS011;44164;44.954;10.068;2024-03-22T04:49:10;4.72;;;4.22;;
58360;SDS011;44164;44.954;10.068;2024-03-22T04:51:36;5.18;;;3.95;;
58360;SDS011;44164;44.954;10.068;2024-03-22T04:54:03;5.35;;;4.32;;
58360;SDS011;44164;44.954;10.068;2024-03-22T04:56:29;6.45;;;4.72;;
58360;SDS011;44164;44.954;10.068;2024-03-22T04:58:55;5.00;;;3.92;;
58360;SDS011;44164;44.954;10.068;2024-03-22T05:01:21;5.05;;;4.28;;
58360;SDS011;44164;44.954;10.068;2024-03-22T05:03:49;4.72;;;4.22;;
58360;SDS011;44164;44.954;10.068;2024-03-22T05:06:15;4.75;;;4.22;;
58360;SDS011;44164;44.954;10.068;2024-03-22T05:08:41;4.90;;;3.95;;
58360;SDS011;44164;44.954;10.068;2024-03-22T05:11:07;4.75;;;4.20;;
58360;SDS011;44164;44.954;10.068;2024-03-22T05:13:34;4.05;;;3.65;;
58360;SDS011;44164;44.954;10.068;2024-03-22T05:16:00;4.40;;;3.55;;
58360;SDS011;44164;44.954;10.068;2024-03-22T05:18:26;4.65;;;4.15;;
58360;SDS011;44164;44.954;10.068;2024-03-22T05:20:52;4.40;;;4.00;;
58360;SDS011;44164;44.954;10.068;2024-03-22T05:23:18;4.25;;;3.83;;
58360;SDS011;44164;44.954;10.068;2024-03-22T05:25:44;3.97;;;3.58;;
58360;SDS011;44164;44.954;10.068;2024-03-22T05:28:10;4.18;;;3.58;;
58360;SDS011;44164;44.954;10.068;2024-03-22T05:30:37;4.15;;;3.53;;
58360;SDS011;44164;44.954;10.068;2024-03-22T05:33:03;4.43;;;3.60;;
58360;SDS011;44164;44.954;10.068;2024-03-22T05:35:29;3.90;;;3.55;;
58360;SDS011;44164;44.954;10.068;2024-03-22T05:37:56;4.03;;;3.50;;
58360;SDS011;44164;44.954;10.068;2024-03-22T05:40:22;3.85;;;3.42;;
58360;SDS011;44164;44.954;10.068;2024-03-22T05:42:48;3.83;;;3.25;;
58360;SDS011;44164;44.954;10.068;2024-03-22T05:45:15;4.40;;;3.53;;
58360;SDS011;44164;44.954;10.068;2024-03-22T05:47:41;3.13;;;2.85;;
58360;SDS011;44164;44.954;10.068;2024-03-22T05:50:07;3.45;;;2.88;;
58360;SDS011;44164;44.954;10.068;2024-03-22T05:52:34;4.68;;;3.70;;
58360;SDS011;44164;44.954;10.068;2024-03-22T05:55:00;4.40;;;3.60;;
58360;SDS011;44164;44.954;10.068;2024-03-22T05:57:26;6.65;;;3.50;;
58360;SDS011;44164;44.954;10.068;2024-03-22T05:59:52;5.25;;;3.70;;
58360;SDS011;44164;44.954;10.068;2024-03-22T06:02:19;3.38;;;3.08;;
58360;SDS011;44164;44.954;10.068;2024-03-22T06:04:45;4.88;;;3.20;;
58360;SDS011;44164;44.954;10.068;2024-03-22T06:07:11;3.88;;;3.10;;
58360;SDS011;44164;44.954;10.068;2024-03-22T06:09:38;4.75;;;3.05;;
58360;SDS011;44164;44.954;10.068;2024-03-22T06:12:14;4.88;;;3.55;;
58360;SDS011;44164;44.954;10.068;2024-03-22T06:14:41;3.42;;;2.83;;
58360;SDS011;44164;44.954;10.068;2024-03-22T06:17:12;3.88;;;3.13;;
58360;SDS011;44164;44.954;10.068;2024-03-22T06:19:38;3.47;;;3.00;;
58360;SDS011;44164;44.954;10.068;2024-03-22T06:22:05;4.05;;;3.28;;
58360;SDS011;44164;44.954;10.068;2024-03-22T06:24:31;3.35;;;2.78;;
58360;SDS011;44164;44.954;10.068;2024-03-22T06:26:58;3.45;;;3.05;;
58360;SDS011;44164;44.954;10.068;2024-03-22T06:29:24;3.15;;;2.60;;
58360;SDS011;44164;44.954;10.068;2024-03-22T06:31:50;7.28;;;3.83;;
58360;SDS011;44164;44.954;10.068;2024-03-22T06:34:18;10.00;;;5.13;;
58360;SDS011;44164;44.954;10.068;2024-03-22T06:36:44;15.38;;;6.72;;
58360;SDS011;44164;44.954;10.068;2024-03-22T06:39:10;24.65;;;10.13;;
58360;SDS011;44164;44.954;10.068;2024-03-22T06:41:36;26.13;;;9.63;;
58360;SDS011;44164;44.954;10.068;2024-03-22T06:44:03;21.30;;;9.27;;
58360;SDS011;44164;44.954;10.068;2024-03-22T06:46:29;27.42;;;12.10;;
58360;SDS011;44164;44.954;10.068;2024-03-22T06:48:55;32.38;;;13.00;;
58360;SDS011;44164;44.954;10.068;2024-03-22T06:51:23;25.77;;;12.52;;
58360;SDS011;44164;44.954;10.068;2024-03-22T06:53:49;27.42;;;13.02;;
58360;SDS011;44164;44.954;10.068;2024-03-22T06:56:17;31.52;;;13.70;;
58360;SDS011;44164;44.954;10.068;2024-03-22T06:58:43;30.58;;;13.45;;
58360;SDS011;44164;44.954;10.068;2024-03-22T07:01:09;28.48;;;11.60;;
58360;SDS011;44164;44.954;10.068;2024-03-22T07:03:35;29.65;;;13.32;;
58360;SDS011;44164;44.954;10.068;2024-03-22T07:06:01;32.83;;;13.30;;
58360;SDS011;44164;44.954;10.068;2024-03-22T07:08:28;30.88;;;13.15;;
58360;SDS011;44164;44.954;10.068;2024-03-22T07:10:54;29.42;;;13.30;;
58360;SDS011;44164;44.954;10.068;2024-03-22T07:13:20;31.30;;;12.82;;
58360;SDS011;44164;44.954;10.068;2024-03-22T07:15:47;24.05;;;12.20;;
58360;SDS011;44164;44.954;10.068;2024-03-22T07:18:13;27.80;;;12.80;;
58360;SDS011;44164;44.954;10.068;2024-03-22T07:20:40;30.85;;;12.25;;
58360;SDS011;44164;44.954;10.068;2024-03-22T07:23:07;29.48;;;12.00;;
58360;SDS011;44164;44.954;10.068;2024-03-22T07:25:34;20.48;;;11.63;;
58360;SDS011;44164;44.954;10.068;2024-03-22T07:28:00;25.05;;;12.32;;
58360;SDS011;44164;44.954;10.068;2024-03-22T07:30:26;20.52;;;11.73;;
58360;SDS011;44164;44.954;10.068;2024-03-22T07:32:52;18.30;;;10.73;;
58360;SDS011;44164;44.954;10.068;2024-03-22T07:35:18;22.90;;;10.75;;
58360;SDS011;44164;44.954;10.068;2024-03-22T07:37:44;22.50;;;11.57;;
58360;SDS011;44164;44.954;10.068;2024-03-22T07:40:10;18.55;;;9.93;;
58360;SDS011;44164;44.954;10.068;2024-03-22T07:42:37;15.77;;;9.10;;
58360;SDS011;44164;44.954;10.068;2024-03-22T07:45:03;21.27;;;9.85;;
58360;SDS011;44164;44.954;10.068;2024-03-22T07:47:30;16.33;;;9.02;;
58360;SDS011;44164;44.954;10.068;2024-03-22T07:49:56;19.30;;;9.07;;
58360;SDS011;44164;44.954;10.068;2024-03-22T07:52:22;21.42;;;10.63;;
58360;SDS011;44164;44.954;10.068;2024-03-22T07:54:50;19.08;;;9.77;;
58360;SDS011;44164;44.954;10.068;2024-03-22T07:57:16;17.02;;;9.85;;
58360;SDS011;44164;44.954;10.068;2024-03-22T07:59:42;20.05;;;9.40;;
58360;SDS011;44164;44.954;10.068;2024-03-22T08:02:09;17.02;;;9.10;;
58360;SDS011;44164;44.954;10.068;2024-03-22T08:04:36;18.90;;;8.95;;
58360;SDS011;44164;44.954;10.068;2024-03-22T08:07:02;16.60;;;9.57;;
58360;SDS011;44164;44.954;10.068;2024-03-22T08:09:28;15.20;;;7.93;;
58360;SDS011;44164;44.954;10.068;2024-03-22T08:11:54;20.33;;;8.75;;
58360;SDS011;44164;44.954;10.068;2024-03-22T08:14:20;15.13;;;7.85;;
58360;SDS011;44164;44.954;10.068;2024-03-22T08:16:46;11.70;;;7.60;;
58360;SDS011;44164;44.954;10.068;2024-03-22T08:19:13;13.65;;;7.72;;
58360;SDS011;44164;44.954;10.068;2024-03-22T08:21:39;12.43;;;6.95;;
58360;SDS011;44164;44.954;10.068;2024-03-22T08:24:05;11.68;;;7.20;;
58360;SDS011;44164;44.954;10.068;2024-03-22T08:26:31;14.27;;;7.07;;
58360;SDS011;44164;44.954;10.068;2024-03-22T08:28:57;14.23;;;7.75;;
58360;SDS011;44164;44.954;10.068;2024-03-22T08:31:23;18.35;;;7.15;;
58360;SDS011;44164;44.954;10.068;2024-03-22T08:33:51;16.58;;;7.38;;
58360;SDS011;44164;44.954;10.068;2024-03-22T08:36:17;12.52;;;7.20;;
58360;SDS011;44164;44.954;10.068;2024-03-22T08:38:44;14.63;;;7.53;;
58360;SDS011;44164;44.954;10.068;2024-03-22T08:41:10;13.70;;;6.55;;
58360;SDS011;44164;44.954;10.068;2024-03-22T08:43:36;12.88;;;6.90;;
58360;SDS011;44164;44.954;10.068;2024-03-22T08:46:02;11.77;;;6.50;;
58360;SDS011;44164;44.954;10.068;2024-03-22T08:48:29;13.95;;;6.43;;
58360;SDS011;44164;44.954;10.068;2024-03-22T08:50:55;11.93;;;6.75;;
58360;SDS011;44164;44.954;10.068;2024-03-22T08:53:21;13.52;;;6.82;;
58360;SDS011;44164;44.954;10.068;2024-03-22T08:55:47;12.48;;;7.13;;
58360;SDS011;44164;44.954;10.068;2024-03-22T08:58:14;11.45;;;6.13;;
58360;SDS011;44164;44.954;10.068;2024-03-22T09:00:41;13.20;;;6.72;;
58360;SDS011;44164;44.954;10.068;2024-03-22T09:03:07;17.85;;;7.20;;
58360;SDS011;44164;44.954;10.068;2024-03-22T09:05:33;11.82;;;7.10;;
58360;SDS011;44164;44.954;10.068;2024-03-22T09:08:00;10.82;;;6.95;;
58360;SDS011;44164;44.954;10.068;2024-03-22T09:10:26;10.15;;;6.78;;
58360;SDS011;44164;44.954;10.068;2024-03-22T09:12:52;10.20;;;5.95;;
58360;SDS011;44164;44.954;10.068;2024-03-22T09:15:18;11.35;;;7.25;;
58360;SDS011;44164;44.954;10.068;2024-03-22T09:17:44;13.35;;;6.78;;
58360;SDS011;44164;44.954;10.068;2024-03-22T09:20:11;10.18;;;6.47;;
58360;SDS011;44164;44.954;10.068;2024-03-22T09:22:37;10.73;;;6.60;;
58360;SDS011;44164;44.954;10.068;2024-03-22T09:25:05;12.57;;;6.43;;
58360;SDS011;44164;44.954;10.068;2024-03-22T09:27:31;8.75;;;5.70;;
58360;SDS011;44164;44.954;10.068;2024-03-22T09:29:58;8.50;;;5.80;;
58360;SDS011;44164;44.954;10.068;2024-03-22T09:32:24;9.48;;;5.60;;
58360;SDS011;44164;44.954;10.068;2024-03-22T09:34:52;8.82;;;6.25;;
58360;SDS011;44164;44.954;10.068;2024-03-22T09:37:18;11.38;;;6.45;;
58360;SDS011;44164;44.954;10.068;2024-03-22T09:39:44;9.63;;;5.93;;
58360;SDS011;44164;44.954;10.068;2024-03-22T09:42:13;10.70;;;6.78;;
58360;SDS011;44164;44.954;10.068;2024-03-22T09:44:44;8.40;;;6.07;;
58360;SDS011;44164;44.954;10.068;2024-03-22T09:47:16;11.07;;;5.95;;
58360;SDS011;44164;44.954;10.068;2024-03-22T09:49:46;8.50;;;6.22;;
58360;SDS011;44164;44.954;10.068;2024-03-22T09:52:15;9.93;;;6.20;;
58360;SDS011;44164;44.954;10.068;2024-03-22T09:54:45;12.45;;;6.32;;
58360;SDS011;44164;44.954;10.068;2024-03-22T09:57:13;8.10;;;5.85;;
58360;SDS011;44164;44.954;10.068;2024-03-22T09:59:44;12.05;;;6.43;;
58360;SDS011;44164;44.954;10.068;2024-03-22T10:02:11;13.35;;;6.15;;
58360;SDS011;44164;44.954;10.068;2024-03-22T10:04:42;11.23;;;6.22;;
58360;SDS011;44164;44.954;10.068;2024-03-22T10:07:08;10.25;;;5.82;;
58360;SDS011;44164;44.954;10.068;2024-03-22T10:09:36;11.52;;;6.72;;
58360;SDS011;44164;44.954;10.068;2024-03-22T10:12:03;13.90;;;6.82;;
58360;SDS011;44164;44.954;10.068;2024-03-22T10:14:29;9.20;;;5.70;;
58360;SDS011;44164;44.954;10.068;2024-03-22T10:16:56;8.20;;;6.00;;
58360;SDS011;44164;44.954;10.068;2024-03-22T10:19:23;9.48;;;6.35;;
58360;SDS011;44164;44.954;10.068;2024-03-22T10:22:01;7.80;;;5.95;;
58360;SDS011;44164;44.954;10.068;2024-03-22T10:24:29;9.55;;;6.20;;
58360;SDS011;44164;44.954;10.068;2024-03-22T10:26:55;7.70;;;5.47;;
58360;SDS011;44164;44.954;10.068;2024-03-22T10:29:22;10.55;;;5.55;;
58360;SDS011;44164;44.954;10.068;2024-03-22T10:31:49;8.38;;;5.40;;
58360;SDS011;44164;44.954;10.068;2024-03-22T10:34:16;7.72;;;5.70;;
58360;SDS011;44164;44.954;10.068;2024-03-22T10:36:42;10.30;;;5.97;;
58360;SDS011;44164;44.954;10.068;2024-03-22T10:39:09;11.77;;;6.25;;
58360;SDS011;44164;44.954;10.068;2024-03-22T10:41:36;9.50;;;5.68;;
58360;SDS011;44164;44.954;10.068;2024-03-22T10:44:03;9.30;;;5.80;;
58360;SDS011;44164;44.954;10.068;2024-03-22T10:46:30;8.30;;;4.75;;
58360;SDS011;44164;44.954;10.068;2024-03-22T10:48:56;6.25;;;4.93;;
58360;SDS011;44164;44.954;10.068;2024-03-22T10:51:23;8.50;;;5.70;;
58360;SDS011;44164;44.954;10.068;2024-03-22T10:53:51;8.80;;;5.25;;
58360;SDS011;44164;44.954;10.068;2024-03-22T10:56:20;9.68;;;5.95;;
58360;SDS011;44164;44.954;10.068;2024-03-22T10:58:47;7.47;;;5.22;;
58360;SDS011;44164;44.954;10.068;2024-03-22T11:01:23;8.38;;;5.55;;
58360;SDS011;44164;44.954;10.068;2024-03-22T11:03:50;8.52;;;4.90;;
58360;SDS011;44164;44.954;10.068;2024-03-22T11:06:20;6.53;;;4.95;;
58360;SDS011;44164;44.954;10.068;2024-03-22T11:08:49;8.77;;;4.43;;
58360;SDS011;44164;44.954;10.068;2024-03-22T11:11:20;8.20;;;4.82;;
58360;SDS011;44164;44.954;10.068;2024-03-22T11:13:48;8.30;;;5.53;;
58360;SDS011;44164;44.954;10.068;2024-03-22T11:16:14;7.88;;;5.13;;
58360;SDS011;44164;44.954;10.068;2024-03-22T11:18:41;6.32;;;4.68;;
58360;SDS011;44164;44.954;10.068;2024-03-22T11:21:07;6.57;;;4.70;;
58360;SDS011;44164;44.954;10.068;2024-03-22T11:23:35;9.37;;;4.83;;
58360;SDS011;44164;44.954;10.068;2024-03-22T11:26:02;8.73;;;4.38;;
58360;SDS011;44164;44.954;10.068;2024-03-22T11:28:30;6.65;;;4.28;;
58360;SDS011;44164;44.954;10.068;2024-03-22T11:30:56;5.45;;;4.03;;
58360;SDS011;44164;44.954;10.068;2024-03-22T11:33:22;6.13;;;4.25;;
58360;SDS011;44164;44.954;10.068;2024-03-22T11:35:49;5.70;;;4.20;;
58360;SDS011;44164;44.954;10.068;2024-03-22T11:38:15;7.22;;;4.80;;
58360;SDS011;44164;44.954;10.068;2024-03-22T11:40:43;6.05;;;3.83;;
58360;SDS011;44164;44.954;10.068;2024-03-22T11:43:09;7.57;;;5.18;;
58360;SDS011;44164;44.954;10.068;2024-03-22T11:45:36;7.07;;;4.18;;
58360;SDS011;44164;44.954;10.068;2024-03-22T11:48:03;6.78;;;4.28;;
58360;SDS011;44164;44.954;10.068;2024-03-22T11:50:29;5.35;;;3.90;;
58360;SDS011;44164;44.954;10.068;2024-03-22T11:52:55;8.98;;;4.38;;
58360;SDS011;44164;44.954;10.068;2024-03-22T11:55:21;5.93;;;4.32;;
58360;SDS011;44164;44.954;10.068;2024-03-22T11:57:48;6.43;;;4.03;;
58360;SDS011;44164;44.954;10.068;2024-03-22T12:00:16;5.38;;;4.47;;
58360;SDS011;44164;44.954;10.068;2024-03-22T12:02:44;6.05;;;3.95;;
58360;SDS011;44164;44.954;10.068;2024-03-22T12:05:10;6.57;;;4.28;;
58360;SDS011;44164;44.954;10.068;2024-03-22T12:07:36;6.70;;;4.35;;
58360;SDS011;44164;44.954;10.068;2024-03-22T12:10:03;5.97;;;4.43;;
58360;SDS011;44164;44.954;10.068;2024-03-22T12:12:29;4.97;;;3.90;;
58360;SDS011;44164;44.954;10.068;2024-03-22T12:14:56;8.45;;;4.80;;
58360;SDS011;44164;44.954;10.068;2024-03-22T12:17:22;6.63;;;4.22;;
58360;SDS011;44164;44.954;10.068;2024-03-22T12:19:48;5.80;;;4.05;;
58360;SDS011;44164;44.954;10.068;2024-03-22T12:22:14;5.68;;;4.03;;
58360;SDS011;44164;44.954;10.068;2024-03-22T12:24:40;6.43;;;4.40;;
58360;SDS011;44164;44.954;10.068;2024-03-22T12:27:06;6.65;;;3.75;;
58360;SDS011;44164;44.954;10.068;2024-03-22T12:29:32;5.28;;;3.80;;
58360;SDS011;44164;44.954;10.068;2024-03-22T12:31:59;5.95;;;4.18;;
58360;SDS011;44164;44.954;10.068;2024-03-22T12:34:29;5.75;;;4.28;;
58360;SDS011;44164;44.954;10.068;2024-03-22T12:36:56;6.25;;;3.65;;
58360;SDS011;44164;44.954;10.068;2024-03-22T12:39:22;4.47;;;3.58;;
58360;SDS011;44164;44.954;10.068;2024-03-22T12:41:48;5.20;;;4.10;;
58360;SDS011;44164;44.954;10.068;2024-03-22T12:44:14;5.40;;;3.88;;
58360;SDS011;44164;44.954;10.068;2024-03-22T12:46:40;5.60;;;4.35;;
58360;SDS011;44164;44.954;10.068;2024-03-22T12:49:10;5.95;;;4.00;;
58360;SDS011;44164;44.954;10.068;2024-03-22T12:51:37;6.30;;;3.78;;
58360;SDS011;44164;44.954;10.068;2024-03-22T12:54:04;4.95;;;3.63;;
58360;SDS011;44164;44.954;10.068;2024-03-22T12:56:30;3.92;;;3.20;;
58360;SDS011;44164;44.954;10.068;2024-03-22T12:58:58;4.95;;;3.90;;
58360;SDS011;44164;44.954;10.068;2024-03-22T13:01:24;4.40;;;3.53;;
58360;SDS011;44164;44.954;10.068;2024-03-22T13:03:51;5.22;;;3.58;;
58360;SDS011;44164;44.954;10.068;2024-03-22T13:06:17;5.68;;;4.18;;
58360;SDS011;44164;44.954;10.068;2024-03-22T13:08:43;5.18;;;3.60;;
58360;SDS011;44164;44.954;10.068;2024-03-22T13:11:09;4.90;;;3.72;;
58360;SDS011;44164;44.954;10.068;2024-03-22T13:13:35;3.95;;;3.30;;
58360;SDS011;44164;44.954;10.068;2024-03-22T13:16:02;5.55;;;3.53;;
58360;SDS011;44164;44.954;10.068;2024-03-22T13:18:29;5.13;;;4.15;;
58360;SDS011;44164;44.954;10.068;2024-03-22T13:20:55;5.10;;;3.65;;
58360;SDS011;44164;44.954;10.068;2024-03-22T13:23:21;6.55;;;4.20;;
58360;SDS011;44164;44.954;10.068;2024-03-22T13:25:47;5.20;;;3.85;;
58360;SDS011;44164;44.954;10.068;2024-03-22T13:28:13;5.03;;;3.90;;
58360;SDS011;44164;44.954;10.068;2024-03-22T13:30:40;5.25;;;3.78;;
58360;SDS011;44164;44.954;10.068;2024-03-22T13:33:06;5.57;;;3.97;;
58360;SDS011;44164;44.954;10.068;2024-03-22T13:35:34;4.28;;;3.28;;
58360;SDS011;44164;44.954;10.068;2024-03-22T13:38:00;5.22;;;3.72;;
58360;SDS011;44164;44.954;10.068;2024-03-22T13:40:26;3.78;;;3.25;;
58360;SDS011;44164;44.954;10.068;2024-03-22T13:42:53;4.60;;;3.65;;
58360;SDS011;44164;44.954;10.068;2024-03-22T13:45:19;4.50;;;3.63;;
58360;SDS011;44164;44.954;10.068;2024-03-22T13:47:46;5.40;;;3.50;;
58360;SDS011;44164;44.954;10.068;2024-03-22T13:50:12;4.95;;;3.75;;
58360;SDS011;44164;44.954;10.068;2024-03-22T13:52:38;4.47;;;3.65;;
58360;SDS011;44164;44.954;10.068;2024-03-22T13:55:04;5.70;;;3.13;;
58360;SDS011;44164;44.954;10.068;2024-03-22T13:57:31;4.10;;;3.20;;
58360;SDS011;44164;44.954;10.068;2024-03-22T13:59:58;4.90;;;3.28;;
58360;SDS011;44164;44.954;10.068;2024-03-22T14:02:24;6.03;;;3.27;;
58360;SDS011;44164;44.954;10.068;2024-03-22T14:04:50;5.00;;;3.47;;
58360;SDS011;44164;44.954;10.068;2024-03-22T14:07:18;4.75;;;2.97;;
58360;SDS011;44164;44.954;10.068;2024-03-22T14:09:44;3.97;;;3.40;;
58360;SDS011;44164;44.954;10.068;2024-03-22T14:12:11;4.72;;;3.63;;
58360;SDS011;44164;44.954;10.068;2024-03-22T14:14:37;4.03;;;3.30;;
58360;SDS011;44164;44.954;10.068;2024-03-22T14:17:03;4.00;;;3.25;;
58360;SDS011;44164;44.954;10.068;2024-03-22T14:19:29;3.78;;;3.03;;
58360;SDS011;44164;44.954;10.068;2024-03-22T14:21:55;4.63;;;3.38;;
58360;SDS011;44164;44.954;10.068;2024-03-22T14:24:21;5.07;;;3.47;;
58360;SDS011;44164;44.954;10.068;2024-03-22T14:26:47;4.65;;;3.28;;